tititudorancea.com
Station Historical Data
Daily Summary for February 18, 2018 Units:  Metric    English   Both
« Previous Day
Next Day »
Daily Weekly Monthly Yearly Custom
  High: Low: Average:
Temperature: -17.8 °C 10 °C 18.2 °C
Dew Point: -17.8 °C 8.8 °C 11.9 °C
Humidity: Humidity % 37 % 70 %
Wind Speed: 0 km/h 0 km/h 7.2 km/h
Wind Gust: 0 km/h - -
Wind:- - SW
Pressure: 0 hPa 1009.4 hPa -
Precipitation: 0 mm    
Historical Graphs
 
 
Ararat weather Find more about Weather in Ararat, AU


 



 


Tabular Data for February 18, 2018
Time Temperature Dew Point Pressure Wind Wind Speed Wind Gust Humidity Rainfall Rate (Hourly)
-17.8 °C -17.8 °C 0 hPa Calm     Humidity % 0 mm
00:00 15.7 °C 11.1 °C 1011.1 hPa SSW 10.5 km/h 16.7 km/h 74 % 0 mm
00:05 15.6 °C 11.2 °C 1011.1 hPa North 7.9 km/h 13 km/h 75 % 0 mm
00:10 15.5 °C 11.1 °C 1011.1 hPa North 8.5 km/h 11.1 km/h 75 % 0 mm
00:15 15.4 °C 11.2 °C 1011.1 hPa North 9.7 km/h 12.9 km/h 76 % 0 mm
00:20 15.3 °C 11.3 °C 1011.1 hPa North 10.5 km/h 13 km/h 77 % 0 mm
00:25 15.3 °C 11.3 °C 1010.7 hPa SSW 9.7 km/h 13 km/h 77 % 0 mm
00:30 15.2 °C 11.4 °C 1011.1 hPa North 8.7 km/h 16.7 km/h 78 % 0 mm
00:35 15.3 °C 11.7 °C 1011.1 hPa North 11.6 km/h 18.5 km/h 79 % 0 mm
00:40 15.3 °C 11.5 °C 1010.7 hPa South 10.1 km/h 16.7 km/h 78 % 0 mm
00:45 15.3 °C 11.7 °C 1010.7 hPa North 12.9 km/h 18.5 km/h 79 % 0 mm
00:50 15.2 °C 11.6 °C 1010.7 hPa North 6.9 km/h 11.1 km/h 79 % 0 mm
00:55 15.1 °C 11.5 °C 1010.7 hPa North 8 km/h 16.1 km/h 79 % 0 mm
01:00 15.1 °C 11.6 °C 1010.7 hPa North 7.1 km/h 11.1 km/h 80 % 0 mm
01:05 14.9 °C 11.5 °C 1010.7 hPa North 9.5 km/h 14.8 km/h 80 % 0 mm
01:14 14.8 °C 11.6 °C 1010.7 hPa Calm   8 km/h 81 % 0 mm
01:19 14.7 °C 11.5 °C 1010.7 hPa North 6 km/h 20.4 km/h 81 % 0 mm
01:24 14.7 °C 11.6 °C 1010.7 hPa North 7.4 km/h 11.1 km/h 82 % 0 mm
01:29 14.6 °C 11.6 °C 1010.7 hPa SSW 8.9 km/h 14.8 km/h 82 % 0 mm
01:34 14.6 °C 11.5 °C 1010.7 hPa South 9 km/h 11.1 km/h 82 % 0 mm
01:39 14.4 °C 11.4 °C 1011.1 hPa South 7.9 km/h 13 km/h 82 % 0 mm
01:44 14.4 °C 11.6 °C 1010.7 hPa North 9.5 km/h 14.8 km/h 83 % 0 mm
01:49 14.4 °C 11.6 °C 1010.7 hPa North 13 km/h 13 km/h 83 % 0 mm
01:54 14.3 °C 11.5 °C 1010.4 hPa SSW 5.5 km/h 11.1 km/h 83 % 0 mm
01:59 14.2 °C 11.6 °C 1010.4 hPa SSW 9.7 km/h 13 km/h 84 % 0 mm
02:04 14.1 °C 11.4 °C 1010.4 hPa SSW 7.4 km/h 13 km/h 84 % 0 mm
02:09 14.1 °C 11.6 °C 1010.4 hPa SSW 4.5 km/h 7.4 km/h 85 % 0 mm
02:14 14.1 °C 11.6 °C 1010.4 hPa SSW 8 km/h 13 km/h 85 % 0 mm
02:19 14 °C 11.5 °C 1010.4 hPa North 2.9 km/h 6.4 km/h 85 % 0 mm
02:24 13.9 °C 11.7 °C 1010.4 hPa SSW 9 km/h 13 km/h 86 % 0 mm
02:29 13.8 °C 11.3 °C 1010.4 hPa SSW 7.7 km/h 11.3 km/h 85 % 0 mm
02:34 13.8 °C 11.5 °C 1010.4 hPa North 8 km/h 13 km/h 86 % 0 mm
02:39 13.7 °C 11.4 °C 1010.4 hPa SSW 10 km/h 11.3 km/h 86 % 0 mm
02:44 13.7 °C 11.4 °C 1010.7 hPa SSW 8.7 km/h 9.7 km/h 86 % 0 mm
02:49 13.6 °C 11.3 °C 1010.4 hPa North 7.9 km/h 9.3 km/h 86 % 0 mm
02:54 13.6 °C 11.5 °C 1010.4 hPa SSW 6.9 km/h 12.9 km/h 87 % 0 mm
02:59 13.6 °C 11.5 °C 1010.4 hPa SSW 8 km/h 13 km/h 87 % 0 mm
03:04 13.6 °C 11.4 °C 1010.4 hPa SSW 6.3 km/h 9.3 km/h 87 % 0 mm
03:09 13.6 °C 11.4 °C 1010.4 hPa SSW 7.7 km/h 16.7 km/h 87 % 0 mm
03:14 13.6 °C 11.6 °C 1010.4 hPa North 5.6 km/h 7.4 km/h 88 % 0 mm
03:19 13.5 °C 11.6 °C 1010.4 hPa SSW 12.4 km/h 14.8 km/h 88 % 0 mm
03:24 13.5 °C 11.6 °C 1010.4 hPa North 7.4 km/h 11.1 km/h 88 % 0 mm
03:29 13.4 °C 11.4 °C 1010.4 hPa North 4.5 km/h 6.4 km/h 88 % 0 mm
03:34 13.3 °C 11.4 °C 1010.4 hPa North 1.9 km/h 5.6 km/h 88 % 0 mm
03:39 13.3 °C 11.3 °C 1010 hPa SSW 5.3 km/h 6.4 km/h 88 % 0 mm
03:44 13.2 °C 11.4 °C 1010 hPa North 3.9 km/h 7.4 km/h 89 % 0 mm
03:49 13.1 °C 11.3 °C 1010 hPa SSW 2.3 km/h 5.6 km/h 89 % 0 mm
03:54 13 °C 11.2 °C 1010 hPa SSW 0.5 km/h 5.6 km/h 89 % 0 mm
03:59 12.9 °C 11.2 °C 1010 hPa SSW 2.1 km/h 4.8 km/h 89 % 0 mm
04:04 12.9 °C 11.1 °C 1010 hPa SSW 1.4 km/h 5.6 km/h 89 % 0 mm
04:10 12.8 °C 11.1 °C 1010 hPa SSW 3.2 km/h 3.7 km/h 89 % 0 mm
04:15 12.7 °C 11.1 °C 1009.7 hPa North 1.9 km/h 5.6 km/h 90 % 0 mm
04:20 12.6 °C 11 °C 1009.7 hPa North 2.4 km/h 3.7 km/h 90 % 0 mm
04:25 12.6 °C 10.9 °C 1009.7 hPa North 2.4 km/h 5.6 km/h 90 % 0 mm
04:30 12.4 °C 10.8 °C 1009.7 hPa SSW 3.2 km/h 5.6 km/h 90 % 0 mm
04:35 12.3 °C 10.7 °C 1009.7 hPa North 1.8 km/h 3.7 km/h 90 % 0 mm
04:40 12.2 °C 10.6 °C 1009.4 hPa North 1.9 km/h 3.7 km/h 90 % 0 mm
04:45 12.2 °C 10.6 °C 1009.4 hPa Calm   1.6 km/h 90 % 0 mm
04:50 12.1 °C 10.7 °C 1009.4 hPa North 4.2 km/h 5.6 km/h 91 % 0 mm
04:55 12.1 °C 10.7 °C 1009.4 hPa SSW 3.9 km/h 5.6 km/h 91 % 0 mm
05:00 12.1 °C 10.7 °C 1009.4 hPa North 2.9 km/h 5.6 km/h 91 % 0 mm
05:05 12.2 °C 10.7 °C 1009.4 hPa SSW 5 km/h 5.6 km/h 91 % 0 mm
05:10 12.2 °C 10.7 °C 1009.4 hPa SSW 3.4 km/h 5.6 km/h 91 % 0 mm
05:15 12.2 °C 10.9 °C 1009.4 hPa North 3.2 km/h 5.6 km/h 92 % 0 mm
05:20 12.1 °C 10.8 °C 1009.4 hPa North 5 km/h 5.6 km/h 92 % 0 mm
05:25 12.1 °C 10.8 °C 1009.4 hPa SSW 3.7 km/h 6.4 km/h 92 % 0 mm
05:30 12.1 °C 10.8 °C 1009.4 hPa North 3.5 km/h 5.6 km/h 92 % 0 mm
05:35 12 °C 10.7 °C 1009.7 hPa North 0.5 km/h 1.9 km/h 92 % 0 mm
05:40 12 °C 10.7 °C 1009.7 hPa Calm     92 % 0 mm
05:45 11.9 °C 10.6 °C 1009.7 hPa Calm     92 % 0 mm
05:50 11.9 °C 10.6 °C 1009.4 hPa Calm   1.9 km/h 92 % 0 mm
05:55 11.8 °C 10.5 °C 1009.4 hPa SSW 1.1 km/h 3.7 km/h 92 % 0 mm
06:00 11.8 °C 10.5 °C 1009.7 hPa Calm   5.6 km/h 92 % 0 mm
06:05 11.7 °C 10.4 °C 1009.4 hPa Calm     92 % 0 mm
06:10 11.6 °C 10.3 °C 1009.4 hPa Calm     92 % 0 mm
06:15 11.5 °C 10.2 °C 1009.4 hPa Calm     92 % 0 mm
06:20 11.4 °C 10.1 °C 1009.4 hPa Calm     92 % 0 mm
06:25 11.3 °C 10.1 °C 1009.4 hPa Calm     92 % 0 mm
06:30 11.3 °C 10.2 °C 1009.4 hPa Calm   1.9 km/h 93 % 0 mm
06:35 11.2 °C 9.9 °C 1009.4 hPa Calm     92 % 0 mm
06:40 11.1 °C 9.8 °C 1009.7 hPa Calm     92 % 0 mm
06:45 10.9 °C 9.7 °C 1009.7 hPa Calm     92 % 0 mm
06:50 10.7 °C 9.4 °C 1009.7 hPa Calm     92 % 0 mm
06:55 10.4 °C 9.2 °C 1009.7 hPa Calm     92 % 0 mm
07:00 10.3 °C 9.1 °C 1009.7 hPa Calm     92 % 0 mm
07:05 10.2 °C 9 °C 1009.7 hPa Calm     92 % 0 mm
07:10 10.1 °C 8.9 °C 1009.7 hPa Calm     92 % 0 mm
07:15 10.1 °C 8.8 °C 1010 hPa Calm     92 % 0 mm
07:20 10 °C 8.8 °C 1010 hPa Calm     92 % 0 mm
07:25 10 °C 8.9 °C 1010 hPa Calm     93 % 0 mm
07:30 10.1 °C 9 °C 1010 hPa Calm     93 % 0 mm
07:35 10.1 °C 9.1 °C 1010 hPa Calm     93 % 0 mm
07:40 10.3 °C 9.2 °C 1010 hPa North 1.4 km/h 3.7 km/h 93 % 0 mm
07:45 10.4 °C 9.5 °C 1010 hPa Calm     94 % 0 mm
07:50 10.6 °C 9.7 °C 1010 hPa SSW 1.8 km/h 3.7 km/h 94 % 0 mm
07:55 10.8 °C 9.8 °C 1010.4 hPa Calm     94 % 0 mm
08:00 10.9 °C 10 °C 1010.4 hPa Calm     94 % 0 mm
08:05 11 °C 10.1 °C 1010.4 hPa Calm     94 % 0 mm
08:10 11.2 °C 10.3 °C 1010.4 hPa Calm     94 % 0 mm
08:15 11.5 °C 10.6 °C 1010.4 hPa Calm     94 % 0 mm
08:20 11.9 °C 11.1 °C 1010.4 hPa SSW 0.6 km/h 1.6 km/h 95 % 0 mm
08:25 12.2 °C 11.2 °C 1010.4 hPa North 2.3 km/h 3.7 km/h 94 % 0 mm
08:30 12.3 °C 11.4 °C 1010.4 hPa Calm     94 % 0 mm
08:35 12.6 °C 11.6 °C 1010.7 hPa Calm     94 % 0 mm
08:41 13 °C 12.1 °C 1010.7 hPa Calm     94 % 0 mm
08:46 13.3 °C 12.3 °C 1010.7 hPa North 0.5 km/h 3.7 km/h 94 % 0 mm
08:51 13.8 °C 12.9 °C 1011.1 hPa Calm     94 % 0 mm
08:56 14.2 °C 13.1 °C 1010.7 hPa Calm     93 % 0 mm
09:01 14.7 °C 13.6 °C 1010.7 hPa North 1 km/h 3.7 km/h 93 % 0 mm
09:06 15.2 °C 13.8 °C 1010.7 hPa North 0.3 km/h 1.9 km/h 91 % 0 mm
09:11 15.7 °C 13.7 °C 1010.7 hPa SSW 1.1 km/h 5.6 km/h 88 % 0 mm
09:16 16.2 °C 13.8 °C 1010.7 hPa North 1.1 km/h 3.7 km/h 86 % 0 mm
09:21 16.5 °C 13.6 °C 1010.7 hPa North 3.9 km/h 5.6 km/h 83 % 0 mm
09:26 16.8 °C 13.6 °C 1010.7 hPa SSW 4.7 km/h 7.4 km/h 81 % 0 mm
09:31 17 °C 13.5 °C 1010.7 hPa SSW 3.1 km/h 5.6 km/h 80 % 0 mm
09:36 16.9 °C 13.3 °C 1010.7 hPa North 4 km/h 5.6 km/h 79 % 0 mm
09:41 17 °C 13.3 °C 1010.7 hPa SSW 4.2 km/h 5.6 km/h 79 % 0 mm
09:46 17.5 °C 13.2 °C 1010.7 hPa SSW 5 km/h 5.6 km/h 76 % 0 mm
09:51 18.1 °C 13.4 °C 1010.7 hPa SSW 0.6 km/h 3.7 km/h 74 % 0 mm
09:56 18.7 °C 13.8 °C 1010.7 hPa North 0.5 km/h 1.9 km/h 73 % 0 mm
10:01 18.9 °C 13.1 °C 1010.7 hPa SSW 1.8 km/h 5.6 km/h 69 % 0 mm
10:06 19.2 °C 13.6 °C 1010.7 hPa SSW 0.3 km/h 1.9 km/h 70 % 0 mm
10:11 19.6 °C 13.5 °C 1010.7 hPa SSW 1.8 km/h 4.8 km/h 68 % 0 mm
10:16 20.2 °C 13.8 °C 1010.7 hPa SSW 4.3 km/h 5.6 km/h 67 % 0 mm
10:21 20.7 °C 13.4 °C 1010.7 hPa Calm     63 % 0 mm
10:26 21 °C 13.2 °C 1010.7 hPa Calm     61 % 0 mm
10:31 21.1 °C 13.1 °C 1011.1 hPa Calm     60 % 0 mm
10:36 21.7 °C 13.1 °C 1011.1 hPa Calm     58 % 0 mm
10:41 22 °C 12.8 °C 1011.1 hPa Calm     56 % 0 mm
10:46 22.4 °C 12.9 °C 1011.1 hPa Calm     55 % 0 mm
10:51 22.8 °C 12.7 °C 1011.1 hPa Calm     53 % 0 mm
10:56 22.9 °C 12.5 °C 1011.1 hPa Calm     52 % 0 mm
11:01 23.3 °C 12.6 °C 1011.1 hPa Calm     51 % 0 mm
11:06 23.9 °C 12.8 °C 1010.7 hPa Calm     50 % 0 mm
11:11 24.5 °C 13.1 °C 1010.7 hPa Calm     49 % 0 mm
11:16 25 °C 12.6 °C 1010.7 hPa Calm     46 % 0 mm
11:21 25 °C 12.6 °C 1010.7 hPa Calm     46 % 0 mm
11:26 25.1 °C 12.3 °C 1010.7 hPa SSW 0.2 km/h 1.9 km/h 45 % 0 mm
11:31 25.5 °C 12.3 °C 1011.1 hPa SSW 1.9 km/h 3.7 km/h 44 % 0 mm
11:36 25.9 °C 12.7 °C 1010.7 hPa SSW 3.2 km/h 5.6 km/h 44 % 0 mm
11:41 25.8 °C 12.3 °C 1010.7 hPa SSW 7.6 km/h 9.3 km/h 43 % 0 mm
11:46 25.7 °C 12.2 °C 1010.7 hPa SSW 4.3 km/h 5.6 km/h 43 % 0 mm
11:51 25.9 °C 12 °C 1010.7 hPa SSW 2.4 km/h 5.6 km/h 42 % 0 mm
11:56 26.1 °C 11.8 °C 1010.7 hPa SSW 2.4 km/h 5.6 km/h 41 % 0 mm
12:01 26.2 °C 11.9 °C 1010.7 hPa SSW 4.8 km/h 7.4 km/h 41 % 0 mm
12:06 26.3 °C 12 °C 1010.7 hPa SSW 1.3 km/h 3.7 km/h 41 % 0 mm
12:11 26.5 °C 11 °C 1010.7 hPa WSW 1.9 km/h 5.6 km/h 38 % 0 mm
12:16 26.5 °C 11 °C 1010.7 hPa WSW 1.8 km/h 4.8 km/h 38 % 0 mm
12:21 26.6 °C 10.7 °C 1010.7 hPa WSW 10.3 km/h 16.7 km/h 37 % 0 mm
12:26 26.4 °C 10.6 °C 1010.7 hPa SW 5.5 km/h 11.1 km/h 37 % 0 mm
12:31 26.2 °C 10.7 °C 1010.7 hPa WSW 4.3 km/h 7.4 km/h 38 % 0 mm
12:36 26.3 °C 10.5 °C 1010.7 hPa WSW 1.4 km/h 7.4 km/h 37 % 0 mm
12:41 26.7 °C 10.8 °C 1010.4 hPa WSW 1.8 km/h 5.6 km/h 37 % 0 mm
12:46 27.2 °C 11.2 °C 1010.4 hPa NW 8.2 km/h 14.8 km/h 37 % 0 mm
12:51 27.2 °C 11.7 °C 1010.4 hPa North 6 km/h 11.1 km/h 38 % 0 mm
12:56 26.9 °C 11.4 °C 1010.4 hPa West 3.2 km/h 6.4 km/h 38 % 0 mm
13:01 26.9 °C 11.4 °C 1010.4 hPa SW 9 km/h 11.1 km/h 38 % 0 mm
13:06 26.6 °C 11.4 °C 1010.4 hPa South 8.4 km/h 16.7 km/h 39 % 0 mm
13:11 26.4 °C 11.4 °C 1010.4 hPa SSE 10.8 km/h 18.5 km/h 39 % 0 mm
13:16 26.1 °C 11.4 °C 1010.4 hPa South 10 km/h 16.7 km/h 40 % 0 mm
13:21 25.9 °C 11.3 °C 1010.4 hPa South 9.7 km/h 18.5 km/h 40 % 0 mm
13:26 25.8 °C 11.5 °C 1010.4 hPa South 11.6 km/h 16.1 km/h 41 % 0 mm
13:31 25.6 °C 10.9 °C 1010.7 hPa SW 12.1 km/h 20.4 km/h 40 % 0 mm
13:36 25.4 °C 11.2 °C 1010.4 hPa SW 9.5 km/h 14.8 km/h 41 % 0 mm
13:41 25.6 °C 11.3 °C 1010.7 hPa SW 12.1 km/h 16.7 km/h 41 % 0 mm
13:46 25.5 °C 11.3 °C 1010.4 hPa SW 10.9 km/h 13 km/h 41 % 0 mm
13:51 25.3 °C 11.1 °C 1010.4 hPa SSW 7.7 km/h 14.8 km/h 41 % 0 mm
13:56 25.3 °C 11.1 °C 1010.4 hPa SSW 13.4 km/h 18.5 km/h 41 % 0 mm
14:01 25.3 °C 11.1 °C 1010.4 hPa South 9.8 km/h 18.5 km/h 41 % 0 mm
14:06 25.4 °C 11.2 °C 1010.7 hPa SW 15 km/h 18.5 km/h 41 % 0 mm
14:11 25.2 °C 11 °C 1010.7 hPa SSW 10.8 km/h 14.8 km/h 41 % 0 mm
14:16 24.9 °C 11.2 °C 1010.7 hPa SSE 14.3 km/h 24.1 km/h 42 % 0 mm
14:21 25 °C 11.6 °C 1010.7 hPa SSW 7.6 km/h 14.8 km/h 43 % 0 mm
14:26 25.3 °C 11.5 °C 1010.4 hPa SSW 23.3 km/h 33.3 km/h 42 % 0 mm
14:31 25.1 °C 11.3 °C 1010.4 hPa SW 19 km/h 24.1 km/h 42 % 0 mm
14:36 24.9 °C 11.1 °C 1010.4 hPa SSW 15.1 km/h 24.1 km/h 42 % 0 mm
14:41 25.2 °C 11.4 °C 1010.4 hPa SW 14.6 km/h 22.2 km/h 42 % 0 mm
14:46 25.1 °C 11.7 °C 1010.4 hPa SW 15.4 km/h 20.4 km/h 43 % 0 mm
14:51 25.1 °C 11.7 °C 1010.4 hPa SW 15.1 km/h 22.2 km/h 43 % 0 mm
14:56 25 °C 11.6 °C 1010.4 hPa SSW 15 km/h 25.9 km/h 43 % 0 mm
15:01 25.3 °C 11.8 °C 1010.4 hPa SW 18.8 km/h 24.1 km/h 43 % 0 mm
15:06 25.2 °C 11.7 °C 1010 hPa SSW 10.8 km/h 17.7 km/h 43 % 0 mm
15:11 25.2 °C 12.1 °C 1010 hPa SSW 12.9 km/h 18.5 km/h 44 % 0 mm
15:16 25.6 °C 12.1 °C 1010 hPa SSW 14.5 km/h 16.7 km/h 43 % 0 mm
15:21 25.4 °C 11.9 °C 1010 hPa SSW 16.4 km/h 24.1 km/h 43 % 0 mm
15:26 25.1 °C 11.9 °C 1010 hPa North 9.2 km/h 13 km/h 44 % 0 mm
15:31 25.1 °C 11.9 °C 1009.7 hPa SSW 10.6 km/h 16.7 km/h 44 % 0 mm
15:36 25.1 °C 11.7 °C 1009.7 hPa South 14.5 km/h 22.2 km/h 43 % 0 mm
15:41 25.2 °C 12.1 °C 1009.7 hPa South 16.7 km/h 18.5 km/h 44 % 0 mm
15:46 25.1 °C 11.6 °C 1009.7 hPa SSW 11.1 km/h 16.7 km/h 43 % 0 mm
15:51 24.9 °C 11.8 °C 1009.7 hPa SSW 12.9 km/h 18.5 km/h 44 % 0 mm
15:56 24.6 °C 11.8 °C 1009.7 hPa SW 8.9 km/h 18.5 km/h 45 % 0 mm
16:01 24.5 °C 11.4 °C 1009.7 hPa SW 10 km/h 13 km/h 44 % 0 mm
16:06 24.6 °C 11.8 °C 1010 hPa SSW 6.8 km/h 9.3 km/h 45 % 0 mm
16:11 24.6 °C 11.6 °C 1010 hPa SSW 11.7 km/h 16.7 km/h 44 % 0 mm
16:16 24.5 °C 11.8 °C 1010 hPa SSW 14.3 km/h 29.6 km/h 45 % 0 mm
16:21 24.4 °C 11.7 °C 1010.4 hPa SSW 16.9 km/h 22.2 km/h 45 % 0 mm
16:26 24.3 °C 11.9 °C 1010.4 hPa SW 16.4 km/h 18.5 km/h 46 % 0 mm
16:31 24.1 °C 11.8 °C 1010.4 hPa SW 17.4 km/h 25.9 km/h 46 % 0 mm
16:36 24 °C 11.7 °C 1010.4 hPa SSW 20.4 km/h 25.9 km/h 46 % 0 mm
16:41 23.8 °C 11.8 °C 1010.4 hPa SSW 18.8 km/h 27.4 km/h 47 % 0 mm
16:46 23.7 °C 11.7 °C 1010 hPa SW 12.6 km/h 27.8 km/h 47 % 0 mm
16:51 23.7 °C 11.7 °C 1010 hPa South 12.6 km/h 18.5 km/h 47 % 0 mm
16:56 23.7 °C 11.7 °C 1010.4 hPa South 9.2 km/h 11.1 km/h 47 % 0 mm
17:01 23.8 °C 11.8 °C 1010.4 hPa SSW 13.2 km/h 20.4 km/h 47 % 0 mm
17:06 23.8 °C 11.8 °C 1010.4 hPa South 15 km/h 19.3 km/h 47 % 0 mm
17:11 23.7 °C 11.7 °C 1010.4 hPa South 10.3 km/h 17.7 km/h 47 % 0 mm
17:16 23.7 °C 12 °C 1010 hPa SSW 4.5 km/h 14.8 km/h 48 % 0 mm
17:21 23.6 °C 11.9 °C 1010 hPa South 15 km/h 25.9 km/h 48 % 0 mm
17:26 23.6 °C 12.2 °C 1010.4 hPa SSE 13.5 km/h 18.5 km/h 49 % 0 mm
17:31 23.3 °C 12.6 °C 1010.7 hPa SSW 18.7 km/h 24.1 km/h 51 % 0 mm
17:36 22.9 °C 12.8 °C 1011.1 hPa SW 15.1 km/h 22.5 km/h 53 % 0 mm
17:41 22.7 °C 12.9 °C 1011.1 hPa SSW 15.6 km/h 22.2 km/h 54 % 0 mm
17:46 22.6 °C 13.1 °C 1011.1 hPa South 13.7 km/h 18.5 km/h 55 % 0 mm
17:51 22.3 °C 13.1 °C 1010.4 hPa South 12.1 km/h 18.5 km/h 56 % 0 mm
17:56 22.2 °C 13.3 °C 1010.4 hPa South 11.4 km/h 22.2 km/h 57 % 0 mm
18:01 22.1 °C 13.2 °C 1010.4 hPa South 9.8 km/h 20.4 km/h 57 % 0 mm
18:06 21.9 °C 13.3 °C 1010.4 hPa South 12.7 km/h 16.7 km/h 58 % 0 mm
18:11 21.9 °C 13.5 °C 1010.4 hPa SSE 7.9 km/h 14.8 km/h 59 % 0 mm
18:16 21.9 °C 13.5 °C 1010.4 hPa SSE 6.9 km/h 16.7 km/h 59 % 0 mm
18:21 21.9 °C 13.5 °C 1010.4 hPa SSE 7.9 km/h 16.7 km/h 59 % 0 mm
18:26 21.9 °C 13.5 °C 1010.7 hPa SSE 6.8 km/h 9.3 km/h 59 % 0 mm
18:31 21.9 °C 13.5 °C 1010.7 hPa SSE 3.7 km/h 8 km/h 59 % 0 mm
18:36 21.9 °C 13.5 °C 1010.7 hPa SSE 9 km/h 9.3 km/h 59 % 0 mm
18:41 21.8 °C 13.4 °C 1011.1 hPa SSE 3.9 km/h 8 km/h 59 % 0 mm
18:46 21.8 °C 13.4 °C 1010.7 hPa SSE 8 km/h 13 km/h 59 % 0 mm
18:51 21.8 °C 13.7 °C 1011.1 hPa SSE 10.6 km/h 13 km/h 60 % 0 mm
18:56 21.7 °C 13.6 °C 1011.1 hPa SSE 9 km/h 13 km/h 60 % 0 mm
19:01 21.6 °C 13.7 °C 1011.4 hPa South 10.1 km/h 16.7 km/h 61 % 0 mm
19:06 21.4 °C 13.6 °C 1011.4 hPa North 13.5 km/h 18.5 km/h 61 % 0 mm
19:11 21.3 °C 13.7 °C 1011.4 hPa South 12.9 km/h 13 km/h 62 % 0 mm
19:16 21.1 °C 13.7 °C 1011.7 hPa SW 14.5 km/h 20.4 km/h 63 % 0 mm
19:21 20.8 °C 13.9 °C 1012.1 hPa SW 14.5 km/h 20.9 km/h 65 % 0 mm
19:26 20.4 °C 13.9 °C 1012.1 hPa SSW 20.3 km/h 25.9 km/h 66 % 0 mm
19:31 20.2 °C 13.9 °C 1012.1 hPa South 9.2 km/h 16.1 km/h 67 % 0 mm
19:37 20.1 °C 13.9 °C 1012.1 hPa SSW 11.9 km/h 18.5 km/h 68 % 0 mm
19:42 19.8 °C 14.2 °C 1012.1 hPa SSW 3.7 km/h 5.6 km/h 70 % 0 mm
19:47 19.6 °C 14.2 °C 1012.1 hPa South 5.8 km/h 13 km/h 71 % 0 mm
19:52 19.4 °C 14.2 °C 1011.7 hPa South 9 km/h 18.5 km/h 72 % 0 mm
19:57 19.2 °C 14.3 °C 1011.7 hPa SSE 7.6 km/h 14.8 km/h 73 % 0 mm
20:02 19.1 °C 14.1 °C 1011.7 hPa South 8.7 km/h 13 km/h 73 % 0 mm
20:07 18.9 °C 14.2 °C 1011.7 hPa SSE 6.4 km/h 9.3 km/h 74 % 0 mm
20:12 18.8 °C 14.1 °C 1011.7 hPa SSE 1.8 km/h 5.6 km/h 74 % 0 mm
20:17 18.7 °C 14.2 °C 1011.7 hPa South 9.3 km/h 16.7 km/h 75 % 0 mm
20:22 18.7 °C 14.2 °C 1011.7 hPa South 9.5 km/h 14.8 km/h 75 % 0 mm
20:27 18.6 °C 14.1 °C 1011.7 hPa North 8.9 km/h 13 km/h 75 % 0 mm
20:32 18.6 °C 14.1 °C 1011.7 hPa SSE 5.5 km/h 11.1 km/h 75 % 0 mm
20:37 18.5 °C 14 °C 1011.4 hPa South 10.3 km/h 13 km/h 75 % 0 mm
20:42 18.4 °C 13.9 °C 1011.7 hPa South 9.7 km/h 14.8 km/h 75 % 0 mm
20:47 18.3 °C 13.8 °C 1011.7 hPa South 9.7 km/h 13 km/h 75 % 0 mm
20:52 18.2 °C 13.9 °C 1012.1 hPa South 10.1 km/h 16.7 km/h 76 % 0 mm
20:57 18.1 °C 14 °C 1012.1 hPa SW 13.2 km/h 18.5 km/h 77 % 0 mm
21:02 17.9 °C 13.8 °C 1012.1 hPa North 10.3 km/h 14.8 km/h 77 % 0 mm
21:07 17.8 °C 13.9 °C 1012.4 hPa South 11.4 km/h 17.7 km/h 78 % 0 mm
21:12 17.7 °C 13.8 °C 1012.4 hPa South 10 km/h 14.8 km/h 78 % 0 mm
21:17 17.6 °C 13.7 °C 1012.4 hPa SSW 13.5 km/h 22.2 km/h 78 % 0 mm
21:22 17.5 °C 13.8 °C 1012.4 hPa South 12.6 km/h 18.5 km/h 79 % 0 mm
21:27 17.4 °C 13.7 °C 1012.4 hPa South 12.1 km/h 18.5 km/h 79 % 0 mm
21:32 17.3 °C 13.7 °C 1012.8 hPa North 10.5 km/h 20.4 km/h 79 % 0 mm
21:37 17.3 °C 13.6 °C 1012.8 hPa South 11.7 km/h 18.5 km/h 79 % 0 mm
21:42 17.2 °C 13.7 °C 1012.8 hPa South 8.9 km/h 20.4 km/h 80 % 0 mm
21:47 17.2 °C 13.7 °C 1012.8 hPa South 10.1 km/h 14.8 km/h 80 % 0 mm
21:52 17.1 °C 13.6 °C 1012.8 hPa South 14.5 km/h 22.5 km/h 80 % 0 mm
21:57 17.1 °C 13.6 °C 1012.8 hPa SSW 8.7 km/h 13 km/h 80 % 0 mm
22:02 17 °C 13.7 °C 1012.8 hPa South 10.3 km/h 14.8 km/h 81 % 0 mm
22:07 16.9 °C 13.7 °C 1012.8 hPa SSW 13.5 km/h 20.4 km/h 81 % 0 mm
22:12 16.9 °C 13.7 °C 1012.8 hPa South 16.4 km/h 20.4 km/h 81 % 0 mm
22:17 16.9 °C 13.8 °C 1012.8 hPa SSW 13.5 km/h 20.4 km/h 82 % 0 mm
22:22 16.9 °C 13.8 °C 1012.8 hPa South 16.7 km/h 25.9 km/h 82 % 0 mm
22:27 16.8 °C 13.7 °C 1012.8 hPa South 13.2 km/h 25.9 km/h 82 % 0 mm
22:32 16.7 °C 13.8 °C 1012.8 hPa North 9.3 km/h 29.6 km/h 83 % 0 mm
22:37 16.7 °C 13.8 °C 1012.8 hPa South 13.2 km/h 20.4 km/h 83 % 0 mm
22:42 16.6 °C 13.9 °C 1012.8 hPa North 8.7 km/h 18.5 km/h 84 % 0 mm
22:47 16.6 °C 13.9 °C 1012.8 hPa SSW 10.1 km/h 18.5 km/h 84 % 0 mm
22:52 16.6 °C 13.8 °C 1013.1 hPa SW 16.3 km/h 20.4 km/h 84 % 0 mm
22:57 16.5 °C 13.9 °C 1013.1 hPa South 11.9 km/h 18.5 km/h 85 % 0 mm
23:02 16.4 °C 13.9 °C 1013.1 hPa South 12.4 km/h 22.2 km/h 85 % 0 mm
23:07 16.4 °C 13.8 °C 1013.1 hPa South 13.2 km/h 24.1 km/h 85 % 0 mm
23:12 16.3 °C 13.8 °C 1013.1 hPa North 16.1 km/h 20.4 km/h 85 % 0 mm
23:17 16.3 °C 13.8 °C 1013.1 hPa SSW 13.7 km/h 24.1 km/h 85 % 0 mm
23:22 16.3 °C 13.9 °C 1013.1 hPa SSW 15.6 km/h 16.7 km/h 86 % 0 mm
23:27 16.2 °C 13.8 °C 1013.1 hPa South 14 km/h 24.1 km/h 86 % 0 mm
23:32 16.1 °C 13.7 °C 1013.1 hPa SSW 14.2 km/h 20.4 km/h 86 % 0 mm
23:37 15.9 °C 13.8 °C 1013.1 hPa South 12.6 km/h 18.5 km/h 87 % 0 mm
23:42 15.9 °C 13.8 °C 1013.1 hPa North 10.9 km/h 22.5 km/h 87 % 0 mm
23:47 15.9 °C 13.9 °C 1013.1 hPa North 9.7 km/h 16.7 km/h 88 % 0 mm
23:52 15.9 °C 13.9 °C 1013.1 hPa North 11.3 km/h 14.5 km/h 88 % 0 mm
23:57 15.8 °C 13.8 °C 1013.1 hPa SSW 11.6 km/h 18.5 km/h 88 % 0 mm
Ararat Weather
Compliments of Weather Underground - 2.25 mb
Click here to send mail.


ABOUT

Live weather data from Ararat, Victoria, Australia, 3377
Data uploaded from Cumulus every 5 minutes to Weather Underground.
This site then downloads the raw data for formatting and display.
Metric and imperial data can be displayed. Graphs and historical data available.
Includes Sun and Moon times and rain image live from BOM.

Check out Ararat Weather on Facebook, Twitter and Google +

Help support ongoing costs by checking out the ads





Follow @AraratWeather